createdAt,value
2023-03-07T00:01:05.420Z,-37.54
2023-03-07T00:03:32.061Z,-37.44
2023-03-07T00:06:06.985Z,-37.37
2023-03-07T00:08:33.692Z,-37.43
2023-03-07T00:11:01.955Z,-37.26
2023-03-07T00:13:32.283Z,-37.21
2023-03-07T00:16:03.369Z,-37.18
2023-03-07T00:18:31.139Z,-37.22
2023-03-07T00:21:02.787Z,-37.38
2023-03-07T00:23:29.318Z,-37.45
2023-03-07T00:26:00.330Z,-37.35
2023-03-07T00:28:26.995Z,-37.32
2023-03-07T00:30:53.555Z,-37.17
2023-03-07T00:33:20.082Z,-37.23
2023-03-07T00:36:00.858Z,-37.23
2023-03-07T00:38:29.846Z,-37.32
2023-03-07T00:41:00.720Z,-37.51
2023-03-07T00:43:27.906Z,-37.30
2023-03-07T00:45:55.093Z,-37.33
2023-03-07T00:48:23.354Z,-37.25
2023-03-07T00:50:50.115Z,-37.27
2023-03-07T00:53:16.983Z,-37.49
2023-03-07T00:55:53.684Z,-37.58
2023-03-07T00:58:20.131Z,-37.53
2023-03-07T01:00:46.606Z,-37.48
2023-03-07T01:03:13.132Z,-37.54
2023-03-07T01:05:40.284Z,-37.63
2023-03-07T01:08:06.788Z,-37.61
2023-03-07T01:10:33.485Z,-37.56
2023-03-07T01:13:00.449Z,-37.65
2023-03-07T01:15:27.602Z,-37.73
2023-03-07T01:17:54.386Z,-37.87
2023-03-07T01:20:20.910Z,-37.87
2023-03-07T01:22:47.427Z,-38.07
2023-03-07T01:25:15.167Z,-38.23
2023-03-07T01:27:41.726Z,-38.31
2023-03-07T01:30:09.381Z,-38.51
2023-03-07T01:32:35.993Z,-38.47
2023-03-07T01:35:02.480Z,-38.51
2023-03-07T01:37:28.943Z,-38.49
2023-03-07T01:39:55.567Z,-38.60
2023-03-07T01:42:22.122Z,-38.56
2023-03-07T01:45:35.936Z,-38.60
2023-03-07T01:48:02.417Z,-38.61
2023-03-07T01:50:28.942Z,-38.65
2023-03-07T01:52:58.055Z,-38.67
2023-03-07T01:55:27.451Z,-38.66
2023-03-07T01:57:55.069Z,-38.78
2023-03-07T02:00:28.685Z,-38.94
2023-03-07T02:03:10.300Z,-38.97
2023-03-07T02:05:43.479Z,-39.10
2023-03-07T02:08:12.077Z,-39.16
2023-03-07T02:10:39.159Z,-39.27
2023-03-07T02:13:05.834Z,-39.31
2023-03-07T02:15:34.197Z,-39.30
2023-03-07T02:18:00.906Z,-39.27
2023-03-07T02:20:39.132Z,-39.29
2023-03-07T02:23:08.507Z,-39.25
2023-03-07T02:25:49.631Z,-39.17
2023-03-07T02:28:17.369Z,-39.23
2023-03-07T02:30:57.998Z,-39.23
2023-03-07T02:33:25.168Z,-39.25
2023-03-07T02:35:57.131Z,-39.24
2023-03-07T02:38:24.212Z,-39.27
2023-03-07T02:40:52.483Z,-39.20
2023-03-07T02:43:19.978Z,-39.17
2023-03-07T02:45:46.534Z,-39.20
2023-03-07T02:48:13.938Z,-39.34
2023-03-07T02:50:40.402Z,-39.36
2023-03-07T02:53:06.899Z,-39.37
2023-03-07T02:55:33.728Z,-39.47
2023-03-07T02:58:00.213Z,-39.46
2023-03-07T03:00:26.984Z,-39.33
2023-03-07T03:02:53.571Z,-39.46
2023-03-07T03:05:20.317Z,-39.36
2023-03-07T03:07:46.780Z,-39.25
2023-03-07T03:10:13.289Z,-39.22
2023-03-07T03:12:39.813Z,-39.22
2023-03-07T03:15:07.027Z,-39.30
2023-03-07T03:17:33.561Z,-39.41
2023-03-07T03:20:00.124Z,-39.56
2023-03-07T03:22:26.628Z,-39.58
2023-03-07T03:24:53.140Z,-39.71
2023-03-07T03:27:19.639Z,-39.62
2023-03-07T03:29:46.187Z,-39.52
2023-03-07T03:32:12.746Z,-39.60
2023-03-07T03:34:39.330Z,-39.65
2023-03-07T03:37:07.720Z,-39.57
2023-03-07T03:39:34.232Z,-39.53
2023-03-07T03:42:00.862Z,-39.70
2023-03-07T03:44:27.374Z,-39.86
2023-03-07T03:46:53.962Z,-39.83
2023-03-07T03:49:20.539Z,-39.90
2023-03-07T03:51:46.990Z,-40.05
2023-03-07T03:54:13.500Z,-40.09
2023-03-07T03:56:40.000Z,-40.10
2023-03-07T03:59:06.482Z,-40.14
2023-03-07T04:01:32.963Z,-40.16
2023-03-07T04:03:59.599Z,-40.08
2023-03-07T04:06:31.388Z,-40.07
2023-03-07T04:08:58.173Z,-39.95
2023-03-07T04:11:25.239Z,-40.01
2023-03-07T04:13:52.201Z,-40.37
2023-03-07T04:16:19.099Z,-40.24
2023-03-07T04:18:45.657Z,-40.22
2023-03-07T04:21:12.975Z,-40.07
2023-03-07T04:23:39.860Z,-40.01
2023-03-07T04:26:08.058Z,-40.20
2023-03-07T04:28:45.693Z,-40.34
2023-03-07T04:31:16.297Z,-40.34
2023-03-07T04:33:43.194Z,-40.14
2023-03-07T04:36:10.381Z,-40.11
2023-03-07T04:38:39.018Z,-40.18
2023-03-07T04:41:06.432Z,-40.08
2023-03-07T04:43:32.936Z,-40.10
2023-03-07T04:45:59.557Z,-40.21
2023-03-07T04:48:26.093Z,-40.12
2023-03-07T04:50:52.803Z,-40.06
2023-03-07T04:53:19.855Z,-40.08
2023-03-07T04:55:46.350Z,-40.04
2023-03-07T04:58:13.603Z,-40.10
2023-03-07T05:00:44.362Z,-40.14
2023-03-07T05:03:11.920Z,-39.99
2023-03-07T05:05:38.807Z,-39.82
2023-03-07T05:08:05.826Z,-39.69
2023-03-07T05:10:33.964Z,-39.62
2023-03-07T05:13:00.613Z,-39.63
2023-03-07T05:15:27.781Z,-39.65
2023-03-07T05:17:54.206Z,-39.54
2023-03-07T05:20:20.971Z,-39.52
2023-03-07T05:22:47.708Z,-39.55
2023-03-07T05:25:14.709Z,-39.53
2023-03-07T05:27:41.224Z,-39.58
2023-03-07T05:30:08.378Z,-39.60
2023-03-07T05:32:35.118Z,-39.58
2023-03-07T05:35:01.735Z,-39.65
2023-03-07T05:37:28.238Z,-39.66
2023-03-07T05:39:54.915Z,-39.71
2023-03-07T05:42:21.470Z,-39.65
2023-03-07T05:44:48.211Z,-39.62
2023-03-07T05:47:15.086Z,-39.51
2023-03-07T05:49:41.954Z,-39.59
2023-03-07T05:52:08.446Z,-39.62
2023-03-07T05:54:34.925Z,-39.59
2023-03-07T05:57:01.387Z,-39.53
2023-03-07T05:59:27.887Z,-39.54
2023-03-07T06:01:54.431Z,-39.47
2023-03-07T06:04:21.064Z,-39.38
2023-03-07T06:06:47.599Z,-39.28
2023-03-07T06:09:14.173Z,-39.30
2023-03-07T06:11:41.050Z,-39.30
2023-03-07T06:14:07.569Z,-39.27
2023-03-07T06:16:34.195Z,-39.10
2023-03-07T06:19:00.843Z,-39.07
2023-03-07T06:21:27.380Z,-39.10
2023-03-07T06:23:53.847Z,-39.14
2023-03-07T06:26:20.440Z,-39.14
2023-03-07T06:28:46.930Z,-39.28
2023-03-07T06:31:16.402Z,-39.37
2023-03-07T06:33:43.889Z,-39.37
2023-03-07T06:36:12.915Z,-39.39
2023-03-07T06:38:40.126Z,-39.42
2023-03-07T06:41:06.971Z,-39.36
2023-03-07T06:43:33.495Z,-39.42
2023-03-07T06:46:00.441Z,-39.40
2023-03-07T06:48:27.082Z,-39.34
2023-03-07T06:50:53.612Z,-39.23
2023-03-07T06:53:20.392Z,-39.15
2023-03-07T06:55:50.721Z,-39.02
2023-03-07T06:58:17.961Z,-39.05
2023-03-07T07:00:44.868Z,-39.00
2023-03-07T07:03:16.140Z,-38.88
2023-03-07T07:05:42.825Z,-38.66
2023-03-07T07:08:09.463Z,-38.75
2023-03-07T07:10:36.799Z,-38.75
2023-03-07T07:13:04.504Z,-38.75
2023-03-07T07:15:32.424Z,-38.53
2023-03-07T07:17:58.911Z,-38.33
2023-03-07T07:20:25.428Z,-38.35
2023-03-07T07:22:51.991Z,-38.16
2023-03-07T07:25:18.450Z,-37.84
2023-03-07T07:27:44.973Z,-37.87
2023-03-07T07:30:12.528Z,-37.74
2023-03-07T07:32:39.237Z,-37.58
2023-03-07T07:35:06.321Z,-37.64
2023-03-07T07:37:32.813Z,-38.06
2023-03-07T07:39:59.290Z,-37.96
2023-03-07T07:42:25.761Z,-37.92
2023-03-07T07:44:52.237Z,-37.64
2023-03-07T07:47:18.796Z,-36.60
2023-03-07T07:49:45.421Z,-34.21
2023-03-07T07:52:11.986Z,-32.02
2023-03-07T07:54:38.643Z,-31.00
2023-03-07T07:57:05.272Z,-30.06
2023-03-07T07:59:34.208Z,-29.28
2023-03-07T08:02:01.749Z,-28.68
2023-03-07T08:04:28.663Z,-28.31
2023-03-07T08:06:55.535Z,-26.42
2023-03-07T08:09:22.155Z,-25.24
2023-03-07T08:11:48.827Z,-24.00
2023-03-07T08:14:16.688Z,-24.52
2023-03-07T08:16:43.295Z,-25.22
2023-03-07T13:30:05.952Z,-31.65
2023-03-07T13:32:50.874Z,-31.68
2023-03-07T13:35:32.335Z,-31.66
2023-03-07T13:38:11.154Z,-31.66
2023-03-07T13:40:43.599Z,-31.72
2023-03-07T13:43:19.399Z,-31.67
2023-03-07T13:45:47.815Z,-31.73
2023-03-07T13:48:20.531Z,-31.68
2023-03-07T13:50:53.531Z,-31.73
2023-03-07T13:54:00.478Z,-31.74
2023-03-07T13:56:29.533Z,-31.73
2023-03-07T13:59:13.998Z,-31.67
2023-03-07T14:01:45.266Z,-31.69
2023-03-07T14:04:36.706Z,-31.63
2023-03-07T14:07:16.212Z,-31.59
2023-03-07T14:09:45.204Z,-31.61
2023-03-07T14:12:38.644Z,-31.53
2023-03-07T14:15:36.623Z,-31.60
2023-03-07T14:18:27.460Z,-31.56
2023-03-07T14:20:56.470Z,-31.54
2023-03-07T14:23:34.946Z,-31.55
2023-03-07T14:26:27.242Z,-31.52
2023-03-07T14:29:24.673Z,-31.50
2023-03-07T14:31:53.200Z,-31.59
2023-03-07T14:34:34.326Z,-31.60
2023-03-07T14:37:04.911Z,-31.56
2023-03-07T14:39:46.676Z,-31.65
2023-03-07T14:42:36.235Z,-31.60
2023-03-07T14:45:08.813Z,-31.64
2023-03-07T14:48:23.940Z,-31.65
2023-03-07T14:50:50.834Z,-31.65
2023-03-07T14:53:28.588Z,-31.71
2023-03-07T14:55:55.881Z,-31.72
2023-03-07T14:58:32.858Z,-31.69
2023-03-07T15:01:03.495Z,-31.70
2023-03-07T15:03:30.578Z,-31.69
2023-03-07T15:05:59.501Z,-31.61
2023-03-07T15:08:31.975Z,-31.63
2023-03-07T15:11:34.040Z,-31.49
2023-03-07T15:14:39.277Z,-31.54
2023-03-07T15:17:12.018Z,-31.53
2023-03-07T15:19:42.797Z,-31.55
2023-03-07T15:22:29.325Z,-31.59
2023-03-07T15:24:55.999Z,-31.60
2023-03-07T15:27:25.947Z,-31.60
2023-03-07T15:29:52.787Z,-31.62
2023-03-07T15:32:37.180Z,-31.63
2023-03-07T15:35:17.212Z,-31.69
2023-03-07T15:38:02.693Z,-31.67
2023-03-07T15:40:36.604Z,-31.67
2023-03-07T15:43:04.465Z,-31.70
2023-03-07T15:45:39.204Z,-31.70
2023-03-07T15:48:32.301Z,-31.68
2023-03-07T15:51:01.338Z,-31.74
2023-03-07T15:53:33.178Z,-31.73
2023-03-07T15:56:01.784Z,-31.74
2023-03-07T15:58:28.776Z,-31.75
2023-03-07T16:01:21.332Z,-31.75
2023-03-07T16:03:58.882Z,-31.77
2023-03-07T16:06:45.946Z,-31.78
2023-03-07T16:09:17.362Z,-31.82
2023-03-07T16:11:45.516Z,-31.83
2023-03-07T16:14:27.891Z,-31.80
2023-03-07T16:16:57.263Z,-31.91
2023-03-07T16:19:23.821Z,-31.93
2023-03-07T16:21:50.390Z,-31.92
2023-03-07T16:24:16.891Z,-31.91
2023-03-07T16:26:44.501Z,-31.96
2023-03-07T16:29:19.134Z,-31.96
2023-03-07T16:31:46.004Z,-32.03
2023-03-07T16:34:21.832Z,-32.00
2023-03-07T16:36:48.481Z,-31.99
2023-03-07T16:39:17.953Z,-32.02
2023-03-07T16:41:46.348Z,-31.94
2023-03-07T16:44:21.099Z,-32.04
2023-03-07T16:46:56.480Z,-32.05
2023-03-07T16:49:23.296Z,-32.06
2023-03-07T16:52:04.591Z,-32.06
2023-03-07T16:54:31.962Z,-32.15
2023-03-07T16:56:58.524Z,-32.07
2023-03-07T16:59:28.398Z,-32.04
2023-03-07T17:01:55.042Z,-32.10
2023-03-07T17:04:21.828Z,-32.10
2023-03-07T17:06:57.713Z,-32.11
2023-03-07T17:09:27.910Z,-32.09
2023-03-07T17:11:54.409Z,-32.16
2023-03-07T17:14:21.020Z,-32.20
2023-03-07T17:16:49.302Z,-32.12
2023-03-07T17:19:34.036Z,-32.18
2023-03-07T17:22:01.845Z,-32.25
2023-03-07T17:24:29.236Z,-32.17
2023-03-07T17:26:56.973Z,-32.17
2023-03-07T17:29:34.397Z,-32.18
2023-03-07T17:32:01.177Z,-32.21
2023-03-07T17:34:29.591Z,-32.29
2023-03-07T17:36:57.368Z,-32.36
2023-03-07T17:39:24.612Z,-32.37
2023-03-07T17:41:51.134Z,-32.34
2023-03-07T17:44:18.196Z,-32.36
2023-03-07T17:46:45.098Z,-32.37
2023-03-07T17:49:11.744Z,-32.41
2023-03-07T17:51:38.657Z,-32.39
2023-03-07T17:54:08.798Z,-32.33
2023-03-07T17:56:36.739Z,-32.35
2023-03-07T17:59:04.013Z,-32.42
2023-03-07T18:01:31.856Z,-32.39
2023-03-07T18:04:00.570Z,-32.37
2023-03-07T18:06:27.547Z,-32.32
2023-03-07T18:08:54.225Z,-32.39
2023-03-07T18:11:20.858Z,-32.35
2023-03-07T18:13:47.413Z,-32.43
2023-03-07T18:16:14.103Z,-32.50
2023-03-07T18:18:57.746Z,-32.42
2023-03-07T18:21:25.332Z,-32.39
2023-03-07T18:23:52.565Z,-32.38
2023-03-07T18:26:20.011Z,-32.42
2023-03-07T18:28:48.159Z,-32.39
2023-03-07T18:31:25.194Z,-32.42
2023-03-07T18:33:53.088Z,-32.37
2023-03-07T18:36:21.509Z,-32.34
2023-03-07T18:38:48.231Z,-32.25
2023-03-07T18:41:25.978Z,-32.31
2023-03-07T18:43:53.982Z,-32.17
2023-03-07T18:46:22.383Z,-32.11
2023-03-07T18:48:49.501Z,-32.10
2023-03-07T18:51:18.851Z,-32.09
2023-03-07T18:53:45.491Z,-32.07
2023-03-07T18:56:14.035Z,-32.02
2023-03-07T18:58:41.564Z,-32.03
2023-03-07T19:01:15.142Z,-31.98
2023-03-07T19:03:42.572Z,-31.97
2023-03-07T19:06:09.692Z,-32.02
2023-03-07T19:08:36.537Z,-31.98
2023-03-07T19:11:04.517Z,-31.94
2023-03-07T19:13:31.338Z,-31.94
2023-03-07T19:16:24.934Z,-32.01
2023-03-07T19:18:51.929Z,-31.97
2023-03-07T19:21:20.405Z,-31.94
2023-03-07T19:23:48.294Z,-32.02
2023-03-07T19:26:18.166Z,-32.03
2023-03-07T19:28:46.122Z,-32.08
2023-03-07T19:31:16.279Z,-32.10
2023-03-07T19:33:43.909Z,-32.07
2023-03-07T19:36:16.305Z,-32.08
2023-03-07T19:38:43.352Z,-32.12
2023-03-07T19:41:12.969Z,-32.13
2023-03-07T19:43:40.365Z,-32.15
2023-03-07T19:46:08.652Z,-32.21
2023-03-07T19:48:35.485Z,-32.13
2023-03-07T19:51:02.345Z,-32.16
2023-03-07T19:53:28.814Z,-32.21
2023-03-07T19:55:55.377Z,-32.25
2023-03-07T19:58:22.097Z,-32.25
2023-03-07T20:00:48.594Z,-32.26
2023-03-07T20:03:17.305Z,-32.34
2023-03-07T20:05:45.594Z,-32.29
2023-03-07T20:08:12.336Z,-32.33
2023-03-07T20:10:39.490Z,-32.33
2023-03-07T20:13:06.783Z,-32.29
2023-03-07T20:15:34.559Z,-32.28
2023-03-07T20:18:04.358Z,-32.26
2023-03-07T20:20:31.011Z,-32.25
2023-03-07T20:22:58.864Z,-32.22
2023-03-07T20:25:29.200Z,-32.18
2023-03-07T20:27:55.789Z,-32.14
2023-03-07T20:30:22.338Z,-32.08
2023-03-07T20:32:48.774Z,-32.12
2023-03-07T20:35:16.287Z,-32.10
2023-03-07T20:37:42.826Z,-32.06
2023-03-07T20:40:09.937Z,-32.11
2023-03-07T20:42:36.523Z,-32.08
2023-03-07T20:45:03.234Z,-32.07
2023-03-07T20:47:29.778Z,-32.10
2023-03-07T20:49:56.510Z,-32.14
2023-03-07T20:52:24.178Z,-32.14
2023-03-07T20:54:50.640Z,-32.15
2023-03-07T20:57:17.092Z,-32.12
2023-03-07T20:59:43.600Z,-32.17
2023-03-07T21:02:11.003Z,-32.21
2023-03-07T21:04:37.702Z,-32.20
2023-03-07T21:07:04.154Z,-32.25
2023-03-07T21:09:30.691Z,-32.25
2023-03-07T21:11:57.652Z,-32.30
2023-03-07T21:14:26.170Z,-32.26
2023-03-07T21:16:52.778Z,-32.22
2023-03-07T21:19:20.212Z,-32.28
2023-03-07T21:21:46.844Z,-32.26
2023-03-07T21:24:16.728Z,-32.27
2023-03-07T21:26:43.572Z,-32.34
2023-03-07T21:29:10.987Z,-32.42
2023-03-07T21:31:38.662Z,-32.41
2023-03-07T21:34:07.737Z,-32.43
2023-03-07T21:36:34.618Z,-32.43
2023-03-07T21:39:04.070Z,-32.43
2023-03-07T21:41:30.517Z,-32.53
2023-03-07T21:43:57.626Z,-32.59
2023-03-07T21:46:25.180Z,-32.62
2023-03-07T21:48:51.897Z,-32.61
2023-03-07T21:51:19.113Z,-32.64
2023-03-07T21:53:45.657Z,-32.68
2023-03-07T21:56:17.029Z,-32.70
2023-03-07T21:58:47.477Z,-32.75
2023-03-07T22:01:26.082Z,-32.76
2023-03-07T22:03:54.866Z,-32.81
2023-03-07T22:06:22.286Z,-32.94
2023-03-07T22:08:48.797Z,-33.15
2023-03-07T22:11:16.226Z,-33.42
2023-03-07T22:13:43.127Z,-33.55
2023-03-07T22:16:17.921Z,-33.87
2023-03-07T22:18:44.488Z,-34.00
2023-03-07T22:21:17.169Z,-34.07
2023-03-07T22:23:43.858Z,-34.01
2023-03-07T22:26:11.914Z,-34.13
2023-03-07T22:28:40.487Z,-34.24
2023-03-07T22:31:11.974Z,-34.58
2023-03-07T22:33:38.993Z,-34.87
2023-03-07T22:36:06.658Z,-34.99
2023-03-07T22:38:33.642Z,-35.23
2023-03-07T22:41:01.560Z,-35.35
2023-03-07T22:43:30.750Z,-35.44
2023-03-07T22:45:57.300Z,-35.40
2023-03-07T22:48:23.942Z,-35.57
2023-03-07T22:50:50.393Z,-35.61
2023-03-07T22:53:16.885Z,-35.69
2023-03-07T22:55:43.738Z,-35.74
2023-03-07T22:58:11.282Z,-35.85
2023-03-07T23:00:40.494Z,-35.91
2023-03-07T23:03:07.028Z,-36.07
2023-03-07T23:05:33.926Z,-36.08
2023-03-07T23:08:01.297Z,-36.19
2023-03-07T23:10:28.999Z,-36.09
2023-03-07T23:12:55.643Z,-36.18
2023-03-07T23:15:23.066Z,-36.16
2023-03-07T23:17:49.703Z,-36.22
2023-03-07T23:20:18.710Z,-36.21
2023-03-07T23:22:46.216Z,-36.27
2023-03-07T23:25:15.165Z,-36.28
2023-03-07T23:27:42.059Z,-36.37
2023-03-07T23:30:09.660Z,-36.42
2023-03-07T23:32:36.344Z,-36.62
2023-03-07T23:35:03.928Z,-36.66
2023-03-07T23:37:30.405Z,-36.63
2023-03-07T23:39:58.450Z,-36.61
2023-03-07T23:42:25.035Z,-36.66
2023-03-07T23:44:51.772Z,-36.67
2023-03-07T23:47:18.241Z,-36.68
2023-03-07T23:49:44.785Z,-36.73
2023-03-07T23:52:11.259Z,-36.66
2023-03-07T23:54:37.796Z,-36.73
2023-03-07T23:57:04.282Z,-36.68
2023-03-07T23:59:30.855Z,-36.65
